sensor_id;sensor_type;location;lat;lon;timestamp;pressure;altitude;pressure_sealevel;temperature;humidity
29909;BME280;36247;51.952;6.146;2023-01-25T00:01:36;103649.88;;;0.17;100.00
29909;BME280;36247;51.952;6.146;2023-01-25T00:04:02;103639.63;;;0.28;100.00
29909;BME280;36247;51.952;6.146;2023-01-25T00:06:27;103634.41;;;0.37;100.00
29909;BME280;36247;51.952;6.146;2023-01-25T00:08:53;103634.25;;;0.26;100.00
29909;BME280;36247;51.952;6.146;2023-01-25T00:11:18;103628.13;;;0.26;100.00
29909;BME280;36247;51.952;6.146;2023-01-25T00:13:45;103631.66;;;0.35;100.00
29909;BME280;36247;51.952;6.146;2023-01-25T00:16:10;103631.03;;;0.29;100.00
29909;BME280;36247;51.952;6.146;2023-01-25T00:18:36;103629.97;;;0.35;100.00
29909;BME280;36247;51.952;6.146;2023-01-25T00:21:15;103630.75;;;0.26;100.00
29909;BME280;36247;51.952;6.146;2023-01-25T00:23:40;103624.88;;;0.28;100.00
29909;BME280;36247;51.952;6.146;2023-01-25T00:26:06;103619.22;;;0.06;100.00
29909;BME280;36247;51.952;6.146;2023-01-25T00:28:31;103623.97;;;0.02;100.00
29909;BME280;36247;51.952;6.146;2023-01-25T00:31:01;103618.91;;;-0.06;100.00
29909;BME280;36247;51.952;6.146;2023-01-25T00:36:01;103620.59;;;0.11;100.00
29909;BME280;36247;51.952;6.146;2023-01-25T00:38:29;103617.69;;;0.26;100.00
29909;BME280;36247;51.952;6.146;2023-01-25T00:40:57;103620.44;;;0.19;100.00
29909;BME280;36247;51.952;6.146;2023-01-25T00:43:23;103618.28;;;0.14;100.00
29909;BME280;36247;51.952;6.146;2023-01-25T00:45:49;103598.19;;;0.13;100.00
29909;BME280;36247;51.952;6.146;2023-01-25T00:48:14;103608.78;;;0.15;100.00
29909;BME280;36247;51.952;6.146;2023-01-25T00:50:40;103605.41;;;0.25;100.00
29909;BME280;36247;51.952;6.146;2023-01-25T00:53:06;103610.19;;;0.20;100.00
29909;BME280;36247;51.952;6.146;2023-01-25T00:55:33;103604.50;;;0.15;100.00
29909;BME280;36247;51.952;6.146;2023-01-25T00:57:59;103604.50;;;0.15;100.00
29909;BME280;36247;51.952;6.146;2023-01-25T01:00:24;103600.81;;;0.13;100.00
29909;BME280;36247;51.952;6.146;2023-01-25T01:02:50;103601.75;;;0.23;100.00
29909;BME280;36247;51.952;6.146;2023-01-25T01:05:15;103593.78;;;0.21;100.00
29909;BME280;36247;51.952;6.146;2023-01-25T01:07:43;103602.97;;;0.17;100.00
29909;BME280;36247;51.952;6.146;2023-01-25T01:10:10;103606.94;;;0.05;100.00
29909;BME280;36247;51.952;6.146;2023-01-25T01:12:36;103606.66;;;0.11;100.00
29909;BME280;36247;51.952;6.146;2023-01-25T01:15:01;103600.66;;;0.12;100.00
29909;BME280;36247;51.952;6.146;2023-01-25T01:17:27;103612.16;;;0.14;100.00
29909;BME280;36247;51.952;6.146;2023-01-25T01:19:52;103602.63;;;0.06;100.00
29909;BME280;36247;51.952;6.146;2023-01-25T01:22:18;103605.25;;;0.06;100.00
29909;BME280;36247;51.952;6.146;2023-01-25T01:24:46;103599.28;;;0.15;100.00
29909;BME280;36247;51.952;6.146;2023-01-25T01:27:12;103609.41;;;0.12;100.00
29909;BME280;36247;51.952;6.146;2023-01-25T01:29:37;103604.97;;;0.20;100.00
29909;BME280;36247;51.952;6.146;2023-01-25T01:32:03;103601.44;;;0.20;100.00
29909;BME280;36247;51.952;6.146;2023-01-25T01:34:29;103602.81;;;0.16;100.00
29909;BME280;36247;51.952;6.146;2023-01-25T01:36:54;103602.63;;;0.06;100.00
29909;BME280;36247;51.952;6.146;2023-01-25T01:39:21;103600.34;;;0.09;100.00
29909;BME280;36247;51.952;6.146;2023-01-25T01:41:46;103601.72;;;-0.04;100.00
29909;BME280;36247;51.952;6.146;2023-01-25T01:44:18;103588.53;;;0.04;100.00
29909;BME280;36247;51.952;6.146;2023-01-25T01:46:52;103596.53;;;0.14;100.00
29909;BME280;36247;51.952;6.146;2023-01-25T01:49:25;103590.69;;;0.08;100.00
29909;BME280;36247;51.952;6.146;2023-01-25T01:52:00;103595.59;;;0.05;100.00
29909;BME280;36247;51.952;6.146;2023-01-25T01:54:39;103596.22;;;0.11;100.00
29909;BME280;36247;51.952;6.146;2023-01-25T01:57:15;103598.66;;;-0.08;100.00
29909;BME280;36247;51.952;6.146;2023-01-25T01:59:47;103593.41;;;-0.17;100.00
29909;BME280;36247;51.952;6.146;2023-01-25T02:02:15;103594.31;;;-0.16;100.00
29909;BME280;36247;51.952;6.146;2023-01-25T02:04:44;103596.47;;;-0.30;100.00
29909;BME280;36247;51.952;6.146;2023-01-25T02:07:30;103596.34;;;-0.05;100.00
29909;BME280;36247;51.952;6.146;2023-01-25T02:09:58;103588.84;;;-0.02;100.00
29909;BME280;36247;51.952;6.146;2023-01-25T02:12:24;103583.31;;;-0.05;100.00
29909;BME280;36247;51.952;6.146;2023-01-25T02:14:52;103587.59;;;-0.14;100.00
29909;BME280;36247;51.952;6.146;2023-01-25T02:17:24;103582.09;;;-0.09;100.00
29909;BME280;36247;51.952;6.146;2023-01-25T02:20:04;103576.41;;;0.04;100.00
29909;BME280;36247;51.952;6.146;2023-01-25T02:25:26;103583.75;;;-0.09;100.00
29909;BME280;36247;51.952;6.146;2023-01-25T02:28:08;103577.81;;;0.01;100.00
29909;BME280;36247;51.952;6.146;2023-01-25T02:30:35;103572.75;;;-0.07;100.00
29909;BME280;36247;51.952;6.146;2023-01-25T02:33:00;103572.72;;;-0.15;100.00
29909;BME280;36247;51.952;6.146;2023-01-25T02:35:50;103577.47;;;-0.20;100.00
29909;BME280;36247;51.952;6.146;2023-01-25T02:38:19;103580.53;;;-0.15;100.00
29909;BME280;36247;51.952;6.146;2023-01-25T02:40:52;103569.53;;;-0.13;100.00
29909;BME280;36247;51.952;6.146;2023-01-25T02:43:22;103566.91;;;-0.22;100.00
29909;BME280;36247;51.952;6.146;2023-01-25T02:45:51;103562.63;;;-0.30;100.00
29909;BME280;36247;51.952;6.146;2023-01-25T02:48:20;103561.97;;;-0.36;100.00
29909;BME280;36247;51.952;6.146;2023-01-25T02:50:45;103564.88;;;-0.33;100.00
29909;BME280;36247;51.952;6.146;2023-01-25T02:53:11;103560.00;;;-0.30;100.00
29909;BME280;36247;51.952;6.146;2023-01-25T02:55:36;103560.28;;;-0.18;100.00
29909;BME280;36247;51.952;6.146;2023-01-25T02:58:02;103556.50;;;-0.13;100.00
29909;BME280;36247;51.952;6.146;2023-01-25T03:00:27;103566.16;;;-0.21;100.00
29909;BME280;36247;51.952;6.146;2023-01-25T03:02:53;103556.47;;;-0.22;100.00
29909;BME280;36247;51.952;6.146;2023-01-25T03:05:18;103565.19;;;-0.21;100.00
29909;BME280;36247;51.952;6.146;2023-01-25T03:07:44;103555.81;;;-0.45;100.00
29909;BME280;36247;51.952;6.146;2023-01-25T03:10:09;103560.91;;;-0.29;100.00
29909;BME280;36247;51.952;6.146;2023-01-25T03:12:35;103549.88;;;-0.36;100.00
29909;BME280;36247;51.952;6.146;2023-01-25T03:15:01;103545.13;;;-0.31;100.00
29909;BME280;36247;51.952;6.146;2023-01-25T03:17:28;103550.16;;;-0.41;100.00
29909;BME280;36247;51.952;6.146;2023-01-25T03:19:55;103544.38;;;-0.30;100.00
29909;BME280;36247;51.952;6.146;2023-01-25T03:22:20;103546.19;;;-0.29;100.00
29909;BME280;36247;51.952;6.146;2023-01-25T03:24:47;103539.31;;;-0.28;100.00
29909;BME280;36247;51.952;6.146;2023-01-25T03:27:12;103535.03;;;-0.28;100.00
29909;BME280;36247;51.952;6.146;2023-01-25T03:29:57;103538.25;;;-0.22;100.00
29909;BME280;36247;51.952;6.146;2023-01-25T03:32:26;103529.94;;;-0.35;100.00
29909;BME280;36247;51.952;6.146;2023-01-25T03:34:51;103530.53;;;-0.38;100.00
29909;BME280;36247;51.952;6.146;2023-01-25T03:37:18;103520.59;;;-0.24;100.00
29909;BME280;36247;51.952;6.146;2023-01-25T03:39:43;103516.19;;;-0.25;100.00
29909;BME280;36247;51.952;6.146;2023-01-25T03:42:09;103511.25;;;-0.31;100.00
29909;BME280;36247;51.952;6.146;2023-01-25T03:44:34;103513.09;;;-0.21;100.00
29909;BME280;36247;51.952;6.146;2023-01-25T03:47:00;103504.50;;;-0.38;100.00
29909;BME280;36247;51.952;6.146;2023-01-25T03:49:27;103508.66;;;-0.40;100.00
29909;BME280;36247;51.952;6.146;2023-01-25T03:51:52;103523.06;;;-0.43;100.00
29909;BME280;36247;51.952;6.146;2023-01-25T03:54:24;103514.16;;;-0.45;100.00
29909;BME280;36247;51.952;6.146;2023-01-25T03:56:49;103509.88;;;-0.27;100.00
29909;BME280;36247;51.952;6.146;2023-01-25T03:59:22;103508.03;;;-0.20;100.00
29909;BME280;36247;51.952;6.146;2023-01-25T04:01:48;103510.50;;;-0.39;100.00
29909;BME280;36247;51.952;6.146;2023-01-25T04:04:14;103502.03;;;-0.36;100.00
29909;BME280;36247;51.952;6.146;2023-01-25T04:06:42;103502.81;;;-0.46;100.00
29909;BME280;36247;51.952;6.146;2023-01-25T04:09:08;103500.69;;;-0.24;100.00
29909;BME280;36247;51.952;6.146;2023-01-25T04:11:38;103498.69;;;-0.26;100.00
29909;BME280;36247;51.952;6.146;2023-01-25T04:14:04;103501.75;;;-0.22;100.00
29909;BME280;36247;51.952;6.146;2023-01-25T04:16:38;103498.69;;;-0.26;100.00
29909;BME280;36247;51.952;6.146;2023-01-25T04:19:21;103497.00;;;-0.34;100.00
29909;BME280;36247;51.952;6.146;2023-01-25T04:21:48;103493.16;;;-0.38;100.00
29909;BME280;36247;51.952;6.146;2023-01-25T04:24:13;103491.81;;;-0.43;100.00
29909;BME280;36247;51.952;6.146;2023-01-25T04:26:41;103493.28;;;-0.63;100.00
29909;BME280;36247;51.952;6.146;2023-01-25T04:29:06;103489.78;;;-0.55;100.00
29909;BME280;36247;51.952;6.146;2023-01-25T04:31:32;103486.41;;;-0.62;100.00
29909;BME280;36247;51.952;6.146;2023-01-25T04:33:58;103485.31;;;-0.56;100.00
29909;BME280;36247;51.952;6.146;2023-01-25T04:36:23;103486.25;;;-0.64;100.00
29909;BME280;36247;51.952;6.146;2023-01-25T04:38:50;103479.38;;;-0.46;100.00
29909;BME280;36247;51.952;6.146;2023-01-25T04:41:15;103485.50;;;-0.45;100.00
29909;BME280;36247;51.952;6.146;2023-01-25T04:43:42;103486.59;;;-0.43;100.00
29909;BME280;36247;51.952;6.146;2023-01-25T04:46:09;103483.19;;;-0.51;100.00
29909;BME280;36247;51.952;6.146;2023-01-25T04:48:34;103474.00;;;-0.56;100.00
29909;BME280;36247;51.952;6.146;2023-01-25T04:51:03;103479.38;;;-0.55;100.00
29909;BME280;36247;51.952;6.146;2023-01-25T04:53:29;103473.53;;;-0.61;100.00
29909;BME280;36247;51.952;6.146;2023-01-25T04:55:58;103476.75;;;-0.63;100.00
29909;BME280;36247;51.952;6.146;2023-01-25T04:58:24;103467.88;;;-0.57;100.00
29909;BME280;36247;51.952;6.146;2023-01-25T05:00:51;103462.38;;;-0.42;100.00
29909;BME280;36247;51.952;6.146;2023-01-25T05:03:17;103459.31;;;-0.47;100.00
29909;BME280;36247;51.952;6.146;2023-01-25T05:05:46;103461.59;;;-0.50;100.00
29909;BME280;36247;51.952;6.146;2023-01-25T05:08:15;103459.44;;;-0.54;100.00
29909;BME280;36247;51.952;6.146;2023-01-25T05:10:41;103456.38;;;-0.50;100.00
29909;BME280;36247;51.952;6.146;2023-01-25T05:13:36;103459.59;;;-0.52;100.00
29909;BME280;36247;51.952;6.146;2023-01-25T05:16:27;103460.97;;;-0.65;100.00
29909;BME280;36247;51.952;6.146;2023-01-25T05:18:54;103456.84;;;-0.72;100.00
29909;BME280;36247;51.952;6.146;2023-01-25T05:21:23;103460.03;;;-0.74;100.00
29909;BME280;36247;51.952;6.146;2023-01-25T05:24:08;103462.34;;;-0.77;100.00
29909;BME280;36247;51.952;6.146;2023-01-25T05:26:34;103463.38;;;-0.84;100.00
29909;BME280;36247;51.952;6.146;2023-01-25T05:29:18;103456.97;;;-0.79;100.00
29909;BME280;36247;51.952;6.146;2023-01-25T05:31:55;103457.00;;;-0.52;100.00
29909;BME280;36247;51.952;6.146;2023-01-25T05:34:22;103449.34;;;-0.51;100.00
29909;BME280;36247;51.952;6.146;2023-01-25T05:36:48;103451.50;;;-0.47;100.00
29909;BME280;36247;51.952;6.146;2023-01-25T05:39:14;103449.34;;;-0.60;100.00
29909;BME280;36247;51.952;6.146;2023-01-25T05:41:40;103451.00;;;-0.60;100.00
29909;BME280;36247;51.952;6.146;2023-01-25T05:44:06;103442.00;;;-0.55;100.00
29909;BME280;36247;51.952;6.146;2023-01-25T05:46:38;103446.56;;;-0.52;100.00
29909;BME280;36247;51.952;6.146;2023-01-25T05:49:04;103447.97;;;-0.47;100.00
29909;BME280;36247;51.952;6.146;2023-01-25T05:51:30;103449.78;;;-0.46;100.00
29909;BME280;36247;51.952;6.146;2023-01-25T05:53:58;103443.34;;;-0.59;100.00
29909;BME280;36247;51.952;6.146;2023-01-25T05:56:23;103454.56;;;-0.60;100.00
29909;BME280;36247;51.952;6.146;2023-01-25T05:58:57;103459.16;;;-0.48;100.00
29909;BME280;36247;51.952;6.146;2023-01-25T06:01:24;103463.25;;;-0.77;100.00
29909;BME280;36247;51.952;6.146;2023-01-25T06:03:55;103461.72;;;-0.83;100.00
29909;BME280;36247;51.952;6.146;2023-01-25T06:06:23;103460.91;;;-0.91;100.00
29909;BME280;36247;51.952;6.146;2023-01-25T06:08:48;103460.97;;;-0.65;100.00
29909;BME280;36247;51.952;6.146;2023-01-25T06:11:17;103456.66;;;-0.64;100.00
29909;BME280;36247;51.952;6.146;2023-01-25T06:13:45;103457.59;;;-0.64;100.00
29909;BME280;36247;51.952;6.146;2023-01-25T06:16:10;103447.34;;;-0.62;100.00
29909;BME280;36247;51.952;6.146;2023-01-25T06:18:42;103441.06;;;-0.56;100.00
29909;BME280;36247;51.952;6.146;2023-01-25T06:21:31;103449.97;;;-0.54;100.00
29909;BME280;36247;51.952;6.146;2023-01-25T06:23:57;103450.28;;;-0.50;100.00
29909;BME280;36247;51.952;6.146;2023-01-25T06:26:22;103453.63;;;-0.60;100.00
29909;BME280;36247;51.952;6.146;2023-01-25T06:28:48;103450.25;;;-0.68;100.00
29909;BME280;36247;51.952;6.146;2023-01-25T06:31:15;103453.59;;;-0.69;100.00
29909;BME280;36247;51.952;6.146;2023-01-25T06:33:42;103454.38;;;-0.70;100.00
29909;BME280;36247;51.952;6.146;2023-01-25T06:36:14;103455.28;;;-0.78;100.00
29909;BME280;36247;51.952;6.146;2023-01-25T06:38:40;103456.34;;;-0.76;100.00
29909;BME280;36247;51.952;6.146;2023-01-25T06:41:09;103456.03;;;-0.79;100.00
29909;BME280;36247;51.952;6.146;2023-01-25T06:43:35;103461.25;;;-0.71;100.00
29909;BME280;36247;51.952;6.146;2023-01-25T06:46:06;103447.31;;;-0.80;100.00
29909;BME280;36247;51.952;6.146;2023-01-25T06:48:32;103462.34;;;-0.77;100.00
29909;BME280;36247;51.952;6.146;2023-01-25T06:51:04;103447.34;;;-0.71;100.00
29909;BME280;36247;51.952;6.146;2023-01-25T06:53:32;103460.16;;;-0.90;100.00
29909;BME280;36247;51.952;6.146;2023-01-25T06:56:04;103454.34;;;-0.87;100.00
29909;BME280;36247;51.952;6.146;2023-01-25T06:58:30;103449.59;;;-0.83;100.00
29909;BME280;36247;51.952;6.146;2023-01-25T07:01:07;103444.41;;;-0.74;100.00
29909;BME280;36247;51.952;6.146;2023-01-25T07:03:36;103445.47;;;-0.72;100.00
29909;BME280;36247;51.952;6.146;2023-01-25T07:06:04;103441.50;;;-0.86;100.00
29909;BME280;36247;51.952;6.146;2023-01-25T07:08:31;103439.94;;;-0.84;100.00
29909;BME280;36247;51.952;6.146;2023-01-25T07:10:59;103433.22;;;-0.91;100.00
29909;BME280;36247;51.952;6.146;2023-01-25T07:13:25;103445.59;;;-0.97;100.00
29909;BME280;36247;51.952;6.146;2023-01-25T07:16:02;103443.50;;;-0.83;100.00
29909;BME280;36247;51.952;6.146;2023-01-25T07:18:30;103441.94;;;-0.81;100.00
29909;BME280;36247;51.952;6.146;2023-01-25T07:21:07;103442.41;;;-0.85;100.00
29909;BME280;36247;51.952;6.146;2023-01-25T07:23:34;103446.22;;;-0.91;100.00
29909;BME280;36247;51.952;6.146;2023-01-25T07:26:02;103447.53;;;-1.12;100.00
29909;BME280;36247;51.952;6.146;2023-01-25T07:28:30;103437.56;;;-1.16;100.00
29909;BME280;36247;51.952;6.146;2023-01-25T07:30:55;103440.38;;;-1.05;100.00
29909;BME280;36247;51.952;6.146;2023-01-25T07:33:21;103445.56;;;-1.05;100.00
29909;BME280;36247;51.952;6.146;2023-01-25T07:35:47;103436.38;;;-1.02;100.00
29909;BME280;36247;51.952;6.146;2023-01-25T07:38:15;103433.03;;;-1.01;100.00
29909;BME280;36247;51.952;6.146;2023-01-25T07:40:42;103427.53;;;-0.95;100.00
29909;BME280;36247;51.952;6.146;2023-01-25T07:43:07;103432.38;;;-1.16;100.00
29909;BME280;36247;51.952;6.146;2023-01-25T07:45:35;103434.03;;;-1.25;100.00
29909;BME280;36247;51.952;6.146;2023-01-25T07:48:07;103429.31;;;-1.20;100.00
29909;BME280;36247;51.952;6.146;2023-01-25T07:50:34;103428.56;;;-1.19;100.00
29909;BME280;36247;51.952;6.146;2023-01-25T07:53:00;103429.03;;;-1.15;100.00
29909;BME280;36247;51.952;6.146;2023-01-25T07:55:25;103426.25;;;-1.16;100.00
29909;BME280;36247;51.952;6.146;2023-01-25T07:57:53;103418.63;;;-1.06;100.00
29909;BME280;36247;51.952;6.146;2023-01-25T08:00:19;103430.31;;;-0.94;100.00
29909;BME280;36247;51.952;6.146;2023-01-25T08:02:49;103420.59;;;-1.12;100.00
29909;BME280;36247;51.952;6.146;2023-01-25T08:05:14;103424.72;;;-1.14;100.00
29909;BME280;36247;51.952;6.146;2023-01-25T08:07:39;103413.09;;;-1.18;100.00
29909;BME280;36247;51.952;6.146;2023-01-25T08:10:05;103417.56;;;-1.08;100.00
29909;BME280;36247;51.952;6.146;2023-01-25T08:12:31;103423.19;;;-1.12;100.00
29909;BME280;36247;51.952;6.146;2023-01-25T08:14:59;103423.63;;;-1.25;100.00
29909;BME280;36247;51.952;6.146;2023-01-25T08:17:25;103413.19;;;-1.34;100.00
29909;BME280;36247;51.952;6.146;2023-01-25T08:19:56;103412.47;;;-1.15;100.00
29909;BME280;36247;51.952;6.146;2023-01-25T08:22:23;103414.56;;;-1.29;100.00
29909;BME280;36247;51.952;6.146;2023-01-25T08:24:48;103406.19;;;-1.17;100.00
29909;BME280;36247;51.952;6.146;2023-01-25T08:27:14;103417.38;;;-1.10;100.00
29909;BME280;36247;51.952;6.146;2023-01-25T08:29:40;103409.47;;;-0.94;100.00
29909;BME280;36247;51.952;6.146;2023-01-25T08:32:05;103411.31;;;-1.01;100.00
29909;BME280;36247;51.952;6.146;2023-01-25T08:34:32;103412.22;;;-1.01;100.00
29909;BME280;36247;51.952;6.146;2023-01-25T08:36:58;103404.84;;;-1.05;100.00
29909;BME280;36247;51.952;6.146;2023-01-25T08:39:24;103408.06;;;-1.08;100.00
29909;BME280;36247;51.952;6.146;2023-01-25T08:41:50;103406.53;;;-1.14;100.00
29909;BME280;36247;51.952;6.146;2023-01-25T08:44:15;103412.16;;;-1.18;100.00
29909;BME280;36247;51.952;6.146;2023-01-25T08:46:41;103404.47;;;-1.26;100.00
29909;BME280;36247;51.952;6.146;2023-01-25T08:49:06;103404.84;;;-1.05;100.00
29909;BME280;36247;51.952;6.146;2023-01-25T08:51:33;103401.78;;;-1.10;100.00
29909;BME280;36247;51.952;6.146;2023-01-25T08:54:03;103394.75;;;-1.02;100.00
29909;BME280;36247;51.952;6.146;2023-01-25T08:56:29;103408.84;;;-1.09;100.00
29909;BME280;36247;51.952;6.146;2023-01-25T08:58:55;103385.72;;;-1.14;100.00
29909;BME280;36247;51.952;6.146;2023-01-25T09:01:20;103383.56;;;-1.10;100.00
29909;BME280;36247;51.952;6.146;2023-01-25T09:03:48;103383.72;;;-1.08;100.00
29909;BME280;36247;51.952;6.146;2023-01-25T09:06:15;103376.25;;;-0.87;100.00
29909;BME280;36247;51.952;6.146;2023-01-25T09:08:41;103372.41;;;-1.09;100.00
29909;BME280;36247;51.952;6.146;2023-01-25T09:11:09;103375.47;;;-1.13;100.00
29909;BME280;36247;51.952;6.146;2023-01-25T09:13:35;103374.41;;;-0.97;100.00
29909;BME280;36247;51.952;6.146;2023-01-25T09:16:03;103379.47;;;-0.81;100.00
29909;BME280;36247;51.952;6.146;2023-01-25T09:18:29;103369.69;;;-1.01;100.00
29909;BME280;36247;51.952;6.146;2023-01-25T09:20:55;103373.66;;;-0.96;100.00
29909;BME280;36247;51.952;6.146;2023-01-25T09:23:21;103371.50;;;-1.00;100.00
29909;BME280;36247;51.952;6.146;2023-01-25T09:25:54;103370.88;;;-1.07;100.00
29909;BME280;36247;51.952;6.146;2023-01-25T09:28:20;103372.81;;;-1.21;100.00
29909;BME280;36247;51.952;6.146;2023-01-25T09:30:53;103367.69;;;-0.95;100.00
29909;BME280;36247;51.952;6.146;2023-01-25T09:33:31;103355.13;;;-0.91;100.00
29909;BME280;36247;51.952;6.146;2023-01-25T09:35:57;103362.31;;;-0.79;100.00
29909;BME280;36247;51.952;6.146;2023-01-25T09:38:23;103362.63;;;-0.76;100.00
29909;BME280;36247;51.952;6.146;2023-01-25T09:54:17;103366.75;;;-0.96;100.00
29909;BME280;36247;51.952;6.146;2023-01-25T09:56:47;103358.50;;;-0.74;100.00
29909;BME280;36247;51.952;6.146;2023-01-25T09:59:15;103353.75;;;-0.87;100.00
29909;BME280;36247;51.952;6.146;2023-01-25T10:01:49;103354.69;;;-0.86;100.00
29909;BME280;36247;51.952;6.146;2023-01-25T10:04:17;103355.63;;;-0.68;100.00
29909;BME280;36247;51.952;6.146;2023-01-25T10:06:48;103353.78;;;-0.69;100.00
29909;BME280;36247;51.952;6.146;2023-01-25T10:09:47;103347.16;;;-0.66;100.00
29909;BME280;36247;51.952;6.146;2023-01-25T10:12:20;103352.22;;;-0.76;100.00
29909;BME280;36247;51.952;6.146;2023-01-25T10:14:48;103354.06;;;-1.01;100.00
29909;BME280;36247;51.952;6.146;2023-01-25T10:20:19;103334.94;;;-0.76;100.00
29909;BME280;36247;51.952;6.146;2023-01-25T10:23:03;103347.00;;;-0.67;100.00
29909;BME280;36247;51.952;6.146;2023-01-25T10:25:42;103339.50;;;-0.64;100.00
29909;BME280;36247;51.952;6.146;2023-01-25T10:28:19;103339.50;;;-0.56;100.00
29909;BME280;36247;51.952;6.146;2023-01-25T10:33:19;103332.47;;;-0.83;100.00
29909;BME280;36247;51.952;6.146;2023-01-25T10:35:46;103321.47;;;-0.89;100.00
29909;BME280;36247;51.952;6.146;2023-01-25T10:38:37;103309.97;;;-0.91;100.00
29909;BME280;36247;51.952;6.146;2023-01-25T10:41:20;103304.44;;;-0.68;100.00
29909;BME280;36247;51.952;6.146;2023-01-25T10:43:51;103308.91;;;-0.84;100.00
29909;BME280;36247;51.952;6.146;2023-01-25T10:46:38;103294.78;;;-0.69;100.00
29909;BME280;36247;51.952;6.146;2023-01-25T10:49:47;103293.75;;;-0.80;100.00
29909;BME280;36247;51.952;6.146;2023-01-25T10:52:29;103291.28;;;-0.69;100.00
29909;BME280;36247;51.952;6.146;2023-01-25T10:55:16;103279.66;;;-0.82;100.00
29909;BME280;36247;51.952;6.146;2023-01-25T10:58:02;103277.22;;;-0.89;100.00
29909;BME280;36247;51.952;6.146;2023-01-25T11:00:36;103264.97;;;-0.81;100.00
29909;BME280;36247;51.952;6.146;2023-01-25T11:03:03;103262.19;;;-0.74;100.00
29909;BME280;36247;51.952;6.146;2023-01-25T11:05:37;103254.84;;;-0.78;100.00
29909;BME280;36247;51.952;6.146;2023-01-25T11:08:31;103256.41;;;-0.89;100.00
29909;BME280;36247;51.952;6.146;2023-01-25T11:10:58;103247.03;;;-0.96;100.00
29909;BME280;36247;51.952;6.146;2023-01-25T11:13:26;103242.28;;;-0.82;100.00
29909;BME280;36247;51.952;6.146;2023-01-25T11:18:33;103234.03;;;-0.78;100.00
29909;BME280;36247;51.952;6.146;2023-01-25T11:21:11;103226.22;;;-0.87;100.00
29909;BME280;36247;51.952;6.146;2023-01-25T11:23:39;103222.88;;;-0.86;100.00
29909;BME280;36247;51.952;6.146;2023-01-25T11:26:18;103219.66;;;-1.01;100.00
29909;BME280;36247;51.952;6.146;2023-01-25T11:28:45;103208.31;;;-0.84;100.00
29909;BME280;36247;51.952;6.146;2023-01-25T11:31:15;103198.75;;;-0.57;100.00
29909;BME280;36247;51.952;6.146;2023-01-25T11:33:41;103196.09;;;-0.40;100.00
29909;BME280;36247;51.952;6.146;2023-01-25T11:38:36;103188.50;;;-0.64;100.00
29909;BME280;36247;51.952;6.146;2023-01-25T11:41:05;103176.16;;;-0.84;100.00
29909;BME280;36247;51.952;6.146;2023-01-25T11:43:53;103180.47;;;-0.85;100.00
29909;BME280;36247;51.952;6.146;2023-01-25T11:46:30;103180.47;;;-0.94;100.00
29909;BME280;36247;51.952;6.146;2023-01-25T11:49:04;103173.72;;;-0.83;100.00
29909;BME280;36247;51.952;6.146;2023-01-25T11:54:29;103153.34;;;-0.78;100.00
29909;BME280;36247;51.952;6.146;2023-01-25T11:56:59;103156.22;;;-0.75;100.00
29909;BME280;36247;51.952;6.146;2023-01-25T11:59:53;103152.00;;;-0.92;100.00
29909;BME280;36247;51.952;6.146;2023-01-25T12:05:27;103134.88;;;-0.54;100.00
29909;BME280;36247;51.952;6.146;2023-01-25T12:22:00;103095.44;;;-0.67;100.00
29909;BME280;36247;51.952;6.146;2023-01-25T12:27:38;103062.25;;;-0.78;100.00
29909;BME280;36247;51.952;6.146;2023-01-25T12:30:20;103064.13;;;-0.86;100.00
29909;BME280;36247;51.952;6.146;2023-01-25T12:35:38;103053.00;;;-1.02;100.00
29909;BME280;36247;51.952;6.146;2023-01-25T12:38:13;103049.78;;;-1.00;100.00
29909;BME280;36247;51.952;6.146;2023-01-25T12:41:22;103043.66;;;-1.00;100.00
29909;BME280;36247;51.952;6.146;2023-01-25T12:43:45;103039.09;;;-1.03;100.00
29909;BME280;36247;51.952;6.146;2023-01-25T12:46:29;103029.84;;;-0.91;100.00
29909;BME280;36247;51.952;6.146;2023-01-25T12:49:00;103027.06;;;-0.83;100.00
29909;BME280;36247;51.952;6.146;2023-01-25T12:51:33;103021.47;;;-0.69;100.00
29909;BME280;36247;51.952;6.146;2023-01-25T12:54:05;103021.03;;;-0.74;100.00
29909;BME280;36247;51.952;6.146;2023-01-25T12:56:41;103014.50;;;-0.79;100.00
29909;BME280;36247;51.952;6.146;2023-01-25T13:02:32;103007.78;;;-0.85;100.00
29909;BME280;36247;51.952;6.146;2023-01-25T13:07:46;103004.31;;;-0.67;100.00
29909;BME280;36247;51.952;6.146;2023-01-25T13:10:29;102997.50;;;-0.84;100.00
29909;BME280;36247;51.952;6.146;2023-01-25T13:13:02;102986.44;;;-0.73;100.00
29909;BME280;36247;51.952;6.146;2023-01-25T13:15:44;102991.56;;;-0.92;100.00
29909;BME280;36247;51.952;6.146;2023-01-25T13:20:55;102986.03;;;-0.86;100.00
29909;BME280;36247;51.952;6.146;2023-01-25T13:28:48;102964.47;;;-0.85;100.00
29909;BME280;36247;51.952;6.146;2023-01-25T13:34:12;102955.38;;;-0.80;100.00
29909;BME280;36247;51.952;6.146;2023-01-25T13:42:04;102959.66;;;-1.08;100.00
29909;BME280;36247;51.952;6.146;2023-01-25T13:44:44;102954.91;;;-1.03;100.00
29909;BME280;36247;51.952;6.146;2023-01-25T13:47:14;102943.91;;;-1.10;100.00
29909;BME280;36247;51.952;6.146;2023-01-25T13:49:45;102937.63;;;-1.03;100.00
29909;BME280;36247;51.952;6.146;2023-01-25T13:52:21;102947.06;;;-0.95;100.00
29909;BME280;36247;51.952;6.146;2023-01-25T13:54:48;102942.59;;;-0.96;100.00
29909;BME280;36247;51.952;6.146;2023-01-25T13:57:19;102936.53;;;-1.05;100.00
29909;BME280;36247;51.952;6.146;2023-01-25T13:59:45;102943.00;;;-1.10;100.00
29909;BME280;36247;51.952;6.146;2023-01-25T14:02:19;102947.13;;;-1.40;100.00
29909;BME280;36247;51.952;6.146;2023-01-25T14:04:46;102953.66;;;-1.35;100.00
29909;BME280;36247;51.952;6.146;2023-01-25T14:07:16;102941.34;;;-1.18;100.00
29909;BME280;36247;51.952;6.146;2023-01-25T14:09:43;102944.75;;;-1.19;100.00
29909;BME280;36247;51.952;6.146;2023-01-25T14:12:10;102941.88;;;-1.03;100.00